Time;durP1;ratioP1;P1;durP2;ratioP2;P2;SDS_P1;SDS_P2;PMS_P1;PMS_P2;Temp;Humidity;BMP_temperature;BMP_pressure;BME280_temperature;BME280_humidity;BME280_pressure;Samples;Min_cycle;Max_cycle;Signal;HPM_P1;HPM_P2
2020/12/20 00:01:40;;;;;;;6.63;3.13;;;9.10;94.90;;;;;;4842748;29;20045;-74
2020/12/20 00:04:08;;;;;;;5.57;2.80;;;9.10;94.90;;;;;;4868549;29;20872;-73
2020/12/20 00:06:41;;;;;;;4.70;2.63;;;9.10;95.20;;;;;;4861953;29;20124;-73
2020/12/20 00:09:19;;;;;;;6.63;2.50;;;9.10;94.90;;;;;;4858307;29;20046;-79
2020/12/20 00:11:49;;;;;;;6.63;3.40;;;9.10;94.90;;;;;;4843709;29;20034;-75
2020/12/20 00:14:28;;;;;;;5.80;3.53;;;9.20;95.20;;;;;;4852909;29;20049;-75
2020/12/20 00:17:02;;;;;;;7.00;3.47;;;9.20;94.90;;;;;;4864038;29;20041;-75
2020/12/20 00:19:29;;;;;;;5.00;2.77;;;9.20;94.90;;;;;;4865767;29;20469;-74
2020/12/20 00:22:07;;;;;;;5.63;2.70;;;9.20;94.90;;;;;;4848528;29;20581;-75
2020/12/20 00:24:34;;;;;;;5.13;2.60;;;9.20;94.90;;;;;;4857039;29;20054;-75
2020/12/20 00:27:03;;;;;;;4.70;2.60;;;9.20;94.90;;;;;;4842369;29;20406;-74
2020/12/20 00:29:32;;;;;;;7.33;2.83;;;9.20;94.90;;;;;;4859941;29;20077;-74
2020/12/20 00:32:01;;;;;;;6.87;3.03;;;9.20;94.90;;;;;;4862143;29;20042;-75
2020/12/20 00:34:38;;;;;;;4.33;2.63;;;9.20;94.90;;;;;;4828576;29;20137;-75
2020/12/20 00:37:07;;;;;;;6.23;2.60;;;9.20;94.90;;;;;;4856062;29;20094;-74
2020/12/20 00:39:34;;;;;;;3.03;1.87;;;9.30;94.90;;;;;;4815268;29;20045;-74
2020/12/20 00:42:04;;;;;;;3.80;1.97;;;9.20;94.90;;;;;;4862424;29;20137;-74
2020/12/20 00:44:31;;;;;;;4.10;2.30;;;9.20;94.90;;;;;;4861268;29;20041;-75
2020/12/20 00:46:59;;;;;;;4.70;2.53;;;9.20;94.90;;;;;;4847688;29;20053;-74
2020/12/20 00:49:28;;;;;;;4.77;2.37;;;9.30;94.90;;;;;;4846717;29;20042;-75
2020/12/20 00:51:57;;;;;;;5.80;2.70;;;9.30;94.90;;;;;;4853408;29;20049;-75
2020/12/20 00:54:26;;;;;;;4.37;2.40;;;9.30;94.90;;;;;;4847652;29;20562;-75
2020/12/20 00:56:53;;;;;;;4.97;2.03;;;9.30;94.90;;;;;;4846505;29;20148;-74
2020/12/20 00:59:20;;;;;;;4.17;1.93;;;9.30;95.10;;;;;;4860834;29;20085;-75
2020/12/20 01:01:47;;;;;;;3.97;1.60;;;9.30;94.90;;;;;;4860310;29;20418;-74
2020/12/20 01:04:15;;;;;;;4.57;2.03;;;9.30;94.90;;;;;;4862014;29;20132;-74
2020/12/20 01:06:43;;;;;;;5.17;2.00;;;9.30;94.90;;;;;;4855852;29;20046;-74
2020/12/20 01:09:18;;;;;;;3.00;1.70;;;9.30;94.90;;;;;;4827728;29;20053;-75
2020/12/20 01:11:47;;;;;;;2.80;1.80;;;9.30;94.90;;;;;;4870992;29;20136;-74
2020/12/20 01:14:14;;;;;;;3.70;1.70;;;9.30;94.90;;;;;;4869121;29;20132;-74
2020/12/20 01:16:48;;;;;;;1.87;1.10;;;9.20;94.90;;;;;;4837746;29;20573;-74
2020/12/20 01:19:15;;;;;;;3.33;2.20;;;9.20;95.00;;;;;;4834696;29;20041;-74
2020/12/20 01:21:41;;;;;;;3.13;1.80;;;9.20;94.90;;;;;;4861740;29;20081;-74
2020/12/20 01:24:08;;;;;;;4.40;2.33;;;9.20;94.90;;;;;;4838593;29;20077;-74
2020/12/20 01:26:37;;;;;;;4.37;1.40;;;9.20;94.90;;;;;;4851125;29;20041;-74
2020/12/20 01:29:03;;;;;;;3.23;1.40;;;9.20;94.90;;;;;;4861528;29;20052;-74
2020/12/20 01:31:30;;;;;;;4.33;1.50;;;9.20;94.90;;;;;;4846621;29;20073;-74
2020/12/20 01:34:10;;;;;;;6.77;2.30;;;9.20;95.10;;;;;;4833611;29;20042;-74
2020/12/20 01:36:38;;;;;;;4.70;2.27;;;9.20;95.00;;;;;;4839392;29;20097;-74
2020/12/20 01:39:05;;;;;;;4.33;2.03;;;9.20;94.90;;;;;;4832038;29;20046;-74
2020/12/20 01:41:31;;;;;;;4.27;1.73;;;9.20;94.90;;;;;;4838728;29;20038;-74
2020/12/20 01:44:00;;;;;;;3.30;1.97;;;9.20;94.90;;;;;;4828646;29;20402;-74
2020/12/20 01:46:39;;;;;;;4.27;2.17;;;9.20;94.90;;;;;;4832958;29;20048;-74
2020/12/20 01:49:11;;;;;;;5.20;2.03;;;9.20;94.90;;;;;;4846536;29;20049;-74
2020/12/20 01:51:39;;;;;;;6.03;1.80;;;9.20;94.90;;;;;;4844871;29;20084;-74
2020/12/20 01:54:12;;;;;;;4.50;2.40;;;9.20;94.90;;;;;;4864067;29;20072;-74
2020/12/20 01:56:48;;;;;;;2.67;1.70;;;9.20;94.90;;;;;;4835827;29;20162;-74
2020/12/20 01:59:22;;;;;;;5.20;1.77;;;9.20;94.90;;;;;;4857320;29;20053;-74
2020/12/20 02:01:59;;;;;;;4.30;1.40;;;9.20;95.20;;;;;;4845064;29;20057;-74
2020/12/20 02:04:57;;;;;;;5.07;1.30;;;9.20;94.90;;;;;;4842512;29;20057;-74
2020/12/20 02:07:31;;;;;;;2.63;1.23;;;9.20;94.90;;;;;;4836586;29;20569;-74
2020/12/20 02:09:58;;;;;;;3.33;1.00;;;9.20;94.90;;;;;;4849404;29;20442;-74
2020/12/20 02:12:26;;;;;;;1.90;0.90;;;9.20;94.90;;;;;;4825489;29;20049;-74
2020/12/20 02:15:04;;;;;;;3.33;1.30;;;9.20;95.00;;;;;;4843792;29;20042;-74
2020/12/20 02:17:30;;;;;;;3.97;1.53;;;9.10;94.90;;;;;;4832682;29;20045;-74
2020/12/20 02:20:13;;;;;;;5.82;1.67;;;9.10;94.90;;;;;;4833669;29;20135;-74
2020/12/20 02:23:02;;;;;;;3.87;1.57;;;9.10;95.00;;;;;;4844093;29;20125;-74
2020/12/20 02:25:40;;;;;;;3.40;1.73;;;9.10;94.90;;;;;;4846152;29;20422;-74
2020/12/20 02:28:20;;;;;;;5.78;1.25;;;9.20;94.90;;;;;;4841323;29;20056;-74
2020/12/20 02:30:50;;;;;;;3.83;1.40;;;9.10;94.90;;;;;;4851191;29;20072;-74
2020/12/20 02:33:23;;;;;;;1.80;0.87;;;9.10;94.90;;;;;;4832566;29;20053;-74
2020/12/20 02:35:51;;;;;;;2.17;0.90;;;9.10;94.90;;;;;;4844586;29;20049;-74
2020/12/20 02:38:18;;;;;;;2.53;1.50;;;9.10;94.90;;;;;;4838151;29;20110;-74
2020/12/20 02:41:04;;;;;;;2.60;0.90;;;9.00;95.00;;;;;;4831567;29;20041;-74
2020/12/20 02:43:31;;;;;;;1.37;0.67;;;9.00;95.00;;;;;;4828411;29;20046;-74
2020/12/20 02:45:58;;;;;;;3.73;0.97;;;9.00;95.00;;;;;;4845277;29;20109;-74
2020/12/20 02:48:24;;;;;;;2.17;0.97;;;8.90;95.00;;;;;;4836474;29;20115;-74
2020/12/20 02:50:54;;;;;;;2.50;1.20;;;8.90;95.00;;;;;;4846014;29;20056;-74
2020/12/20 02:53:21;;;;;;;1.70;0.90;;;8.90;95.00;;;;;;4826439;29;20425;-74
2020/12/20 02:55:47;;;;;;;2.27;0.73;;;8.80;95.10;;;;;;4857562;29;20049;-74
2020/12/20 02:58:16;;;;;;;2.93;0.97;;;8.80;95.10;;;;;;4828908;29;20733;-74
2020/12/20 03:01:01;;;;;;;1.90;0.90;;;8.80;95.10;;;;;;4823245;29;20045;-74
2020/12/20 03:03:27;;;;;;;2.37;1.00;;;8.80;95.10;;;;;;4858453;29;20123;-74
2020/12/20 03:05:55;;;;;;;2.47;1.10;;;8.80;95.10;;;;;;4858147;29;20152;-74
2020/12/20 03:08:22;;;;;;;3.23;1.37;;;8.80;95.10;;;;;;4828124;29;20454;-74
2020/12/20 03:10:50;;;;;;;3.33;1.33;;;8.80;95.10;;;;;;4842725;29;20053;-74
2020/12/20 03:13:18;;;;;;;3.33;1.57;;;8.80;95.10;;;;;;4828908;29;20068;-74
2020/12/20 03:15:53;;;;;;;2.83;1.20;;;8.80;95.10;;;;;;4840292;29;20058;-74
2020/12/20 03:18:23;;;;;;;3.27;1.30;;;8.80;95.10;;;;;;4842870;29;20050;-74
2020/12/20 03:20:55;;;;;;;5.60;2.05;;;8.90;95.10;;;;;;4858354;29;20073;-74
2020/12/20 03:23:23;;;;;;;4.73;1.97;;;8.90;95.10;;;;;;4831222;29;20441;-74
2020/12/20 03:26:08;;;;;;;3.37;1.17;;;8.90;95.00;;;;;;4815976;29;20073;-74
2020/12/20 03:28:54;;;;;;;3.90;1.30;;;8.90;95.00;;;;;;4827818;29;20106;-74
2020/12/20 03:31:36;;;;;;;6.78;2.72;;;8.90;95.00;;;;;;4814155;29;20521;-74
2020/12/20 03:34:11;;;;;;;3.70;1.93;;;8.90;95.00;;;;;;4805021;29;20038;-74
2020/12/20 03:36:46;;;;;;;3.50;1.77;;;9.00;95.00;;;;;;4809839;29;20053;-74
2020/12/20 03:39:15;;;;;;;3.87;1.63;;;9.00;95.00;;;;;;4780779;29;20054;-74
2020/12/20 03:41:43;;;;;;;4.47;1.87;;;9.00;95.00;;;;;;4839923;29;20041;-74
2020/12/20 03:44:15;;;;;;;2.13;1.10;;;9.00;95.00;;;;;;4821117;29;20046;-74
2020/12/20 03:46:41;;;;;;;2.90;1.10;;;9.00;95.00;;;;;;4824644;29;20046;-74
2020/12/20 03:49:08;;;;;;;2.63;0.97;;;8.90;95.00;;;;;;4809149;29;20073;-74
2020/12/20 03:51:34;;;;;;;3.47;1.27;;;8.90;95.00;;;;;;4809012;29;20042;-74
2020/12/20 03:54:03;;;;;;;2.73;1.10;;;9.00;95.00;;;;;;4809254;29;20140;-74
2020/12/20 03:56:30;;;;;;;3.13;1.30;;;8.90;95.00;;;;;;4794827;29;20102;-74
2020/12/20 03:59:13;;;;;;;3.73;1.23;;;9.00;95.00;;;;;;4812932;29;20050;-74
2020/12/20 04:01:41;;;;;;;5.13;1.70;;;9.00;95.00;;;;;;4824541;29;20157;-74
2020/12/20 04:04:07;;;;;;;5.50;2.00;;;9.00;95.00;;;;;;4811711;29;20399;-74
2020/12/20 04:06:34;;;;;;;2.30;1.10;;;9.00;95.00;;;;;;4833675;29;20130;-74
2020/12/20 04:09:01;;;;;;;4.80;1.50;;;9.00;95.00;;;;;;4827444;29;20098;-74
2020/12/20 04:11:46;;;;;;;2.97;1.43;;;9.00;95.00;;;;;;4814762;29;20129;-74
2020/12/20 04:14:15;;;;;;;3.07;1.10;;;9.00;95.00;;;;;;4827066;29;20110;-74
2020/12/20 04:16:43;;;;;;;4.03;1.83;;;9.10;95.00;;;;;;4812751;29;20065;-74
2020/12/20 04:19:09;;;;;;;3.50;1.57;;;9.10;95.00;;;;;;4797932;29;20053;-74
2020/12/20 04:21:43;;;;;;;4.20;1.83;;;9.10;94.90;;;;;;4813554;29;20122;-73
2020/12/20 04:24:21;;;;;;;3.07;1.40;;;9.10;94.90;;;;;;4839978;29;20056;-73
2020/12/20 04:26:47;;;;;;;6.63;2.30;;;9.10;94.90;;;;;;4827485;29;20056;-73
2020/12/20 04:29:19;;;;;;;4.20;1.67;;;9.10;94.90;;;;;;4798983;29;20046;-74
2020/12/20 04:31:52;;;;;;;4.37;1.57;;;9.10;95.20;;;;;;4799047;29;20046;-74
2020/12/20 04:34:20;;;;;;;2.73;1.17;;;9.10;94.90;;;;;;4842480;29;20060;-73
2020/12/20 04:36:47;;;;;;;3.33;1.10;;;9.10;94.90;;;;;;4797862;29;20042;-73
2020/12/20 04:39:36;;;;;;;2.93;1.10;;;9.00;94.90;;;;;;4843228;29;20058;-74
2020/12/20 04:42:03;;;;;;;4.40;1.00;;;9.00;95.00;;;;;;4827414;29;20058;-73
2020/12/20 04:44:31;;;;;;;3.00;1.20;;;9.00;95.00;;;;;;4812232;29;20571;-74
2020/12/20 04:47:03;;;;;;;2.75;1.10;;;9.00;95.20;;;;;;4824371;29;20038;-73
2020/12/20 04:49:38;;;;;;;;;;;9.00;95.00;;;;;;4808210;29;20533;-73
2020/12/20 04:52:12;;;;;;;2.83;1.00;;;9.00;95.00;;;;;;4830732;29;20385;-73
2020/12/20 04:54:45;;;;;;;3.28;0.90;;;9.00;95.00;;;;;;4831363;29;20050;-73
2020/12/20 04:57:23;;;;;;;3.13;1.10;;;9.00;95.00;;;;;;4826949;29;20081;-73
2020/12/20 04:59:52;;;;;;;2.33;1.17;;;9.00;95.00;;;;;;4826928;29;20058;-73
2020/12/20 05:02:20;;;;;;;2.60;1.10;;;9.00;95.00;;;;;;4826682;29;20054;-73
2020/12/20 05:04:47;;;;;;;2.70;1.03;;;9.00;95.00;;;;;;4820962;29;20057;-73
2020/12/20 05:07:17;;;;;;;2.87;1.50;;;9.00;95.00;;;;;;4823576;29;20077;-73
2020/12/20 05:09:52;;;;;;;3.03;1.30;;;9.00;95.00;;;;;;4835004;29;20141;-74
2020/12/20 05:12:33;;;;;;;2.97;1.20;;;9.00;94.90;;;;;;4826303;29;20826;-73
2020/12/20 05:15:34;;;;;;;4.73;1.83;;;9.00;94.90;;;;;;4841381;29;20050;-73
2020/12/20 05:18:26;;;;;;;2.73;1.37;;;9.10;94.90;;;;;;4830915;29;20511;-73
2020/12/20 05:21:07;;;;;;;2.83;1.10;;;9.10;94.90;;;;;;4812805;29;20045;-73
2020/12/20 05:23:36;;;;;;;1.97;1.00;;;9.10;94.90;;;;;;4811655;29;20050;-73
2020/12/20 05:26:30;;;;;;;;;;;9.00;94.90;;;;;;4837942;29;20511;-73
2020/12/20 05:29:11;;;;;;;3.47;0.90;;;9.00;94.90;;;;;;4811650;29;20459;-73
2020/12/20 05:31:41;;;;;;;2.40;0.80;;;9.00;95.00;;;;;;4830274;29;20046;-74
2020/12/20 05:34:37;;;;;;;2.33;1.07;;;9.00;95.00;;;;;;4803510;29;20078;-74
2020/12/20 05:37:09;;;;;;;3.77;1.00;;;9.00;95.00;;;;;;4823778;29;20042;-73
2020/12/20 05:39:56;;;;;;;4.43;1.47;;;9.00;95.00;;;;;;4813743;29;20054;-73
2020/12/20 05:42:34;;;;;;;4.33;1.17;;;9.00;95.00;;;;;;4813049;29;20487;-73
2020/12/20 05:45:07;;;;;;;4.03;1.17;;;9.10;95.00;;;;;;4825819;29;20057;-73
2020/12/20 05:47:44;;;;;;;4.00;1.23;;;9.10;94.90;;;;;;4812232;29;20049;-74
2020/12/20 05:50:14;;;;;;;2.90;1.37;;;9.10;94.90;;;;;;4796734;29;20451;-73
2020/12/20 05:52:42;;;;;;;3.63;1.00;;;9.10;94.90;;;;;;4811531;29;20061;-74
2020/12/20 05:55:12;;;;;;;2.60;1.17;;;9.10;94.90;;;;;;4816437;29;20129;-73
2020/12/20 05:57:39;;;;;;;2.10;0.80;;;9.10;94.90;;;;;;4825825;29;20140;-73
2020/12/20 06:00:07;;;;;;;2.40;0.80;;;9.10;94.90;;;;;;4795733;29;20042;-73
2020/12/20 06:02:40;;;;;;;2.60;1.13;;;9.10;95.00;;;;;;4839179;29;20057;-74
2020/12/20 06:05:07;;;;;;;2.90;0.83;;;9.00;95.00;;;;;;4826210;29;20114;-74
2020/12/20 06:07:37;;;;;;;2.10;1.00;;;9.00;95.00;;;;;;4825664;29;20048;-74
2020/12/20 06:10:10;;;;;;;1.57;0.50;;;9.00;95.00;;;;;;4810431;29;20050;-74
2020/12/20 06:12:48;;;;;;;1.43;0.50;;;9.00;95.00;;;;;;4825420;29;20046;-74
2020/12/20 06:15:18;;;;;;;1.00;0.47;;;9.00;95.00;;;;;;4841420;29;20048;-74
2020/12/20 06:17:55;;;;;;;2.60;0.80;;;8.90;95.00;;;;;;4839534;29;20502;-74
2020/12/20 06:20:30;;;;;;;2.80;0.93;;;8.90;95.00;;;;;;4825354;29;20042;-74
2020/12/20 06:22:58;;;;;;;1.30;0.57;;;8.90;95.00;;;;;;4796041;29;20110;-74
2020/12/20 06:25:28;;;;;;;2.20;0.90;;;8.90;95.00;;;;;;4838718;29;20061;-74
2020/12/20 06:28:04;;;;;;;1.17;0.53;;;8.90;95.00;;;;;;4835763;29;20487;-74
2020/12/20 06:30:31;;;;;;;1.73;0.60;;;8.90;95.00;;;;;;4818400;29;20065;-74
2020/12/20 06:33:03;;;;;;;1.57;0.67;;;8.90;95.00;;;;;;4806947;29;20166;-74
2020/12/20 06:35:31;;;;;;;2.77;0.97;;;8.90;95.00;;;;;;4830556;29;20046;-74
2020/12/20 06:37:58;;;;;;;1.50;0.50;;;8.80;95.00;;;;;;4809964;29;20491;-74
2020/12/20 06:40:30;;;;;;;1.00;0.40;;;8.80;95.00;;;;;;4841745;29;20102;-74
2020/12/20 06:42:58;;;;;;;1.30;0.50;;;8.80;95.00;;;;;;4825840;29;20060;-73
2020/12/20 06:45:33;;;;;;;3.10;1.00;;;8.80;95.30;;;;;;4840918;29;20567;-74
2020/12/20 06:48:04;;;;;;;1.97;0.60;;;8.70;95.00;;;;;;4838054;29;20392;-74
2020/12/20 06:50:44;;;;;;;1.30;0.40;;;8.80;95.10;;;;;;4820135;29;20566;-74
2020/12/20 06:53:12;;;;;;;1.63;0.57;;;8.80;95.10;;;;;;4841535;29;20057;-74
2020/12/20 06:55:40;;;;;;;2.20;0.70;;;8.70;95.10;;;;;;4806754;29;20050;-74
2020/12/20 06:58:08;;;;;;;2.73;0.60;;;8.80;95.10;;;;;;4836019;29;20085;-74
2020/12/20 07:00:54;;;;;;;5.60;0.70;;;8.80;95.10;;;;;;4841571;29;20045;-74
2020/12/20 07:03:21;;;;;;;1.57;0.60;;;8.80;95.00;;;;;;4841900;29;20050;-74
2020/12/20 07:05:50;;;;;;;2.00;0.60;;;8.90;95.10;;;;;;4840468;29;20106;-74
2020/12/20 07:08:22;;;;;;;1.83;0.60;;;8.80;95.00;;;;;;4825276;29;20088;-74
2020/12/20 07:10:50;;;;;;;1.75;0.70;;;8.80;95.00;;;;;;4833169;29;20159;-74
2020/12/20 07:13:37;;;;;;;1.00;0.50;;;8.80;95.00;;;;;;4841816;29;20124;-74
2020/12/20 07:16:21;;;;;;;1.70;0.60;;;8.80;95.00;;;;;;4833115;29;20045;-74
2020/12/20 07:18:56;;;;;;;3.17;0.60;;;8.70;95.00;;;;;;4841253;29;20410;-73
2020/12/20 07:21:22;;;;;;;1.60;0.70;;;8.70;95.00;;;;;;4828413;29;20049;-74
2020/12/20 07:24:03;;;;;;;1.30;0.67;;;8.70;95.10;;;;;;4837590;29;20133;-74
2020/12/20 07:26:30;;;;;;;1.63;0.50;;;8.70;95.10;;;;;;4851142;29;20448;-73
2020/12/20 07:29:02;;;;;;;2.03;0.70;;;8.60;95.00;;;;;;4809724;29;20117;-73
2020/12/20 07:31:29;;;;;;;1.35;0.50;;;8.60;95.10;;;;;;4855273;29;20057;-73
2020/12/20 07:33:56;;;;;;;0.90;0.40;;;8.60;95.10;;;;;;4841053;29;20091;-74
2020/12/20 07:36:23;;;;;;;3.77;0.90;;;8.60;95.10;;;;;;4841189;29;20038;-74
2020/12/20 07:38:50;;;;;;;2.90;0.60;;;8.60;95.10;;;;;;4833091;29;20076;-74
2020/12/20 07:41:18;;;;;;;3.23;1.30;;;8.60;95.10;;;;;;4823983;29;20056;-74
2020/12/20 07:43:48;;;;;;;2.37;0.90;;;8.60;95.10;;;;;;4834265;29;20472;-74
2020/12/20 07:46:16;;;;;;;2.37;0.83;;;8.60;95.10;;;;;;4825184;29;20052;-74
2020/12/20 07:48:43;;;;;;;4.17;0.80;;;8.60;95.10;;;;;;4824713;29;20038;-74
2020/12/20 07:51:27;;;;;;;4.30;1.33;;;8.60;95.00;;;;;;4824810;29;20469;-74
2020/12/20 07:53:55;;;;;;;4.17;1.40;;;8.60;95.00;;;;;;4814001;29;20479;-74
2020/12/20 07:56:30;;;;;;;5.67;1.67;;;8.60;95.10;;;;;;4820707;29;20051;-74
2020/12/20 07:59:07;;;;;;;6.80;1.37;;;8.60;95.10;;;;;;4825252;29;20057;-74
2020/12/20 08:01:35;;;;;;;4.70;1.20;;;8.60;95.00;;;;;;4824099;29;20042;-74
2020/12/20 08:04:13;;;;;;;3.07;1.20;;;8.60;95.00;;;;;;4824021;29;20042;-74
2020/12/20 08:06:45;;;;;;;3.13;1.00;;;8.60;95.00;;;;;;4839460;29;20074;-74
2020/12/20 08:09:13;;;;;;;2.77;0.90;;;8.70;95.10;;;;;;4824885;29;20053;-74
2020/12/20 08:11:41;;;;;;;2.43;0.83;;;8.60;95.10;;;;;;4809708;29;20388;-74
2020/12/20 08:14:13;;;;;;;2.07;1.00;;;8.70;95.10;;;;;;4807835;29;20054;-74
2020/12/20 08:16:42;;;;;;;1.85;0.82;;;8.70;95.10;;;;;;4836834;29;20120;-74
2020/12/20 08:19:14;;;;;;;3.83;1.47;;;8.70;95.10;;;;;;4824189;29;20384;-74
2020/12/20 08:21:49;;;;;;;4.15;1.10;;;8.70;95.10;;;;;;4824557;29;20042;-74
2020/12/20 08:24:17;;;;;;;2.50;0.90;;;8.70;95.10;;;;;;4824017;29;20448;-74
2020/12/20 08:26:44;;;;;;;3.67;1.13;;;8.70;95.10;;;;;;4840269;29;20145;-74
2020/12/20 08:29:13;;;;;;;2.43;0.80;;;8.70;95.00;;;;;;4834242;29;20065;-74
2020/12/20 08:31:44;;;;;;;4.70;1.02;;;8.70;95.00;;;;;;4808362;29;20053;-74
2020/12/20 08:34:16;;;;;;;4.37;1.10;;;8.80;95.10;;;;;;4840740;29;20046;-74
2020/12/20 08:36:51;;;;;;;4.93;1.42;;;8.80;95.00;;;;;;4835810;29;20047;-73
2020/12/20 08:39:25;;;;;;;2.83;1.50;;;8.80;95.00;;;;;;4835243;29;20038;-74
2020/12/20 08:42:05;;;;;;;3.53;1.47;;;8.80;95.00;;;;;;4830232;29;20436;-74
2020/12/20 08:44:32;;;;;;;2.57;1.20;;;8.90;95.00;;;;;;4818542;29;20053;-74
2020/12/20 08:47:09;;;;;;;3.27;1.00;;;8.90;95.00;;;;;;4823743;29;20058;-74
2020/12/20 08:49:37;;;;;;;4.60;1.53;;;9.00;95.00;;;;;;4842168;29;20106;-74
2020/12/20 08:52:14;;;;;;;3.03;1.07;;;9.00;95.00;;;;;;4795339;29;20559;-74
2020/12/20 08:54:48;;;;;;;5.83;1.20;;;9.00;94.90;;;;;;4822395;29;20053;-74
2020/12/20 08:57:15;;;;;;;4.90;1.20;;;9.00;94.90;;;;;;4827687;29;20517;-74
2020/12/20 08:59:43;;;;;;;4.27;1.00;;;9.10;95.00;;;;;;4828427;29;20486;-74
2020/12/20 09:02:24;;;;;;;2.87;1.23;;;9.10;94.90;;;;;;4843870;29;20046;-74
2020/12/20 09:05:03;;;;;;;4.17;1.87;;;9.10;94.90;;;;;;4838978;29;20050;-75
2020/12/20 09:07:48;;;;;;;6.43;1.90;;;9.20;94.90;;;;;;4838883;29;20118;-74
2020/12/20 09:10:16;;;;;;;6.40;2.40;;;9.20;94.90;;;;;;4827721;29;20061;-73
2020/12/20 09:13:09;;;;;;;8.27;2.23;;;9.30;94.80;;;;;;4826871;29;20136;-74
2020/12/20 09:15:39;;;;;;;4.60;1.92;;;9.30;94.70;;;;;;4820439;29;20503;-73
2020/12/20 09:18:17;;;;;;;8.50;2.73;;;9.30;94.80;;;;;;4823911;29;20042;-73
2020/12/20 09:20:48;;;;;;;11.13;2.53;;;9.40;94.70;;;;;;4834778;29;20062;-74
2020/12/20 09:23:21;;;;;;;3.63;1.07;;;9.40;94.70;;;;;;4817758;29;20082;-75
2020/12/20 09:25:58;;;;;;;5.07;1.77;;;9.40;94.70;;;;;;4827349;29;20110;-74
2020/12/20 09:28:32;;;;;;;6.43;1.73;;;9.40;94.70;;;;;;4827240;29;20445;-73
2020/12/20 09:31:01;;;;;;;7.20;1.90;;;9.40;94.70;;;;;;4827302;29;20053;-74
2020/12/20 09:33:30;;;;;;;6.20;1.90;;;9.50;94.70;;;;;;4827048;29;20503;-72
2020/12/20 09:36:06;;;;;;;7.87;1.77;;;9.50;94.60;;;;;;4826648;29;20039;-74
2020/12/20 09:38:41;;;;;;;4.57;1.80;;;9.50;94.60;;;;;;4826773;29;20046;-74
2020/12/20 09:41:10;;;;;;;5.03;1.50;;;9.50;94.60;;;;;;4827129;29;20049;-74
2020/12/20 09:43:37;;;;;;;6.63;1.60;;;9.50;94.60;;;;;;4843521;29;20065;-72
2020/12/20 09:46:04;;;;;;;7.37;1.90;;;9.60;94.60;;;;;;4827092;29;20383;-73
2020/12/20 09:48:30;;;;;;;5.40;1.70;;;9.60;94.60;;;;;;4826961;29;20098;-73
2020/12/20 09:50:58;;;;;;;6.30;2.17;;;9.60;94.60;;;;;;4826951;29;20046;-74
2020/12/20 09:53:28;;;;;;;6.43;1.83;;;9.60;94.50;;;;;;4825012;29;20058;-74
2020/12/20 09:55:55;;;;;;;7.87;2.47;;;9.60;94.50;;;;;;4829755;29;20050;-75
2020/12/20 09:58:40;;;;;;;;;;;;;;;;;;;;;
2020/12/20 10:01:14;;;;;;;8.90;2.03;;;9.70;94.40;;;;;;4813949;29;20050;-74
2020/12/20 10:03:40;;;;;;;11.10;2.63;;;9.70;94.40;;;;;;4824206;29;20391;-72
2020/12/20 10:06:06;;;;;;;6.87;2.07;;;9.70;94.40;;;;;;4826294;29;20074;-72
2020/12/20 10:08:33;;;;;;;8.97;2.30;;;9.80;94.40;;;;;;4820315;29;20054;-72
2020/12/20 10:10:59;;;;;;;11.67;2.87;;;9.80;94.30;;;;;;4842634;29;20078;-72
2020/12/20 10:13:26;;;;;;;7.20;2.40;;;9.80;94.30;;;;;;4826008;29;20046;-73
2020/12/20 10:15:53;;;;;;;7.73;1.90;;;9.80;94.20;;;;;;4839106;29;20062;-73
2020/12/20 10:18:20;;;;;;;5.53;2.37;;;9.80;94.20;;;;;;4829109;29;20058;-73
2020/12/20 10:20:46;;;;;;;6.10;1.60;;;9.90;94.20;;;;;;4823597;29;20071;-73
2020/12/20 10:23:12;;;;;;;7.87;1.93;;;9.90;94.30;;;;;;4810006;29;20050;-73
2020/12/20 10:25:42;;;;;;;12.33;1.87;;;9.90;94.30;;;;;;4823563;29;20097;-73
2020/12/20 10:28:09;;;;;;;4.83;1.53;;;9.90;94.30;;;;;;4819444;29;20490;-72
2020/12/20 10:30:36;;;;;;;6.33;1.63;;;9.90;94.20;;;;;;4842427;29;20192;-72
2020/12/20 10:33:03;;;;;;;5.20;1.83;;;10.00;94.20;;;;;;4841531;29;20038;-72
2020/12/20 10:35:29;;;;;;;4.97;2.10;;;9.90;94.20;;;;;;4825796;29;20157;-72
2020/12/20 10:37:57;;;;;;;7.10;2.47;;;9.90;94.20;;;;;;4841180;29;20444;-72
2020/12/20 10:40:25;;;;;;;6.83;1.90;;;10.00;94.10;;;;;;4834519;29;20126;-72
2020/12/20 10:42:52;;;;;;;6.87;2.10;;;10.00;94.00;;;;;;4830671;29;20045;-72
2020/12/20 10:45:18;;;;;;;11.67;2.27;;;10.00;94.00;;;;;;4810594;29;20045;-72
2020/12/20 10:47:45;;;;;;;7.53;1.63;;;10.10;94.00;;;;;;4825277;29;20058;-72
2020/12/20 10:50:12;;;;;;;4.73;1.67;;;10.10;94.00;;;;;;4825615;29;20042;-72
2020/12/20 10:52:40;;;;;;;5.90;2.33;;;10.10;94.00;;;;;;4841561;29;20121;-72
2020/12/20 10:55:08;;;;;;;6.03;1.73;;;10.10;93.90;;;;;;4820271;29;20050;-72
2020/12/20 10:57:34;;;;;;;6.93;1.80;;;10.10;94.00;;;;;;4841665;29;20410;-72
2020/12/20 11:00:04;;;;;;;8.80;1.80;;;10.10;94.00;;;;;;4818737;29;20094;-72
2020/12/20 11:02:30;;;;;;;6.17;2.70;;;10.10;93.90;;;;;;4824077;29;20114;-72
2020/12/20 11:04:56;;;;;;;9.47;2.87;;;10.10;93.80;;;;;;4840455;29;20096;-72
2020/12/20 11:07:23;;;;;;;11.40;2.17;;;10.10;93.80;;;;;;4809813;29;20090;-73
2020/12/20 11:09:49;;;;;;;8.00;2.47;;;10.20;93.80;;;;;;4816478;29;20077;-73
2020/12/20 11:12:16;;;;;;;5.63;2.60;;;10.20;93.80;;;;;;4837204;29;20042;-74
2020/12/20 11:14:42;;;;;;;14.23;2.03;;;10.20;93.70;;;;;;4848933;29;20443;-74
2020/12/20 11:17:09;;;;;;;11.53;2.50;;;10.20;93.70;;;;;;4840746;29;20045;-73
2020/12/20 11:19:36;;;;;;;9.03;1.93;;;10.20;93.70;;;;;;4841262;29;20463;-74
2020/12/20 11:22:02;;;;;;;8.33;2.23;;;10.10;94.00;;;;;;4825273;29;20046;-74
2020/12/20 11:24:29;;;;;;;10.73;2.27;;;10.20;93.70;;;;;;4839821;29;20464;-74
2020/12/20 11:26:55;;;;;;;9.73;2.50;;;10.20;93.50;;;;;;4840350;29;20081;-73
2020/12/20 11:29:22;;;;;;;10.00;2.97;;;10.30;93.50;;;;;;4830967;29;20106;-72
2020/12/20 11:31:48;;;;;;;7.37;2.40;;;10.30;93.50;;;;;;4820824;29;20555;-72
2020/12/20 11:34:15;;;;;;;8.93;2.50;;;10.40;93.40;;;;;;4824825;29;20045;-73
2020/12/20 11:36:43;;;;;;;6.53;1.67;;;10.50;93.40;;;;;;4841227;29;20041;-72
2020/12/20 11:39:12;;;;;;;7.67;2.30;;;10.60;93.40;;;;;;4841325;29;20045;-72
2020/12/20 11:41:39;;;;;;;5.90;1.60;;;10.70;93.40;;;;;;4823150;29;20050;-72
2020/12/20 11:44:07;;;;;;;4.70;1.87;;;10.70;93.40;;;;;;4824894;29;20433;-72
2020/12/20 11:46:34;;;;;;;11.23;2.27;;;10.70;93.30;;;;;;4841083;29;20045;-72
2020/12/20 11:49:02;;;;;;;10.93;2.30;;;10.70;93.20;;;;;;4841115;29;20145;-72
2020/12/20 11:51:31;;;;;;;5.63;2.00;;;10.70;93.20;;;;;;4824113;29;20054;-72
2020/12/20 11:53:58;;;;;;;6.23;1.60;;;10.70;93.20;;;;;;4810329;29;20105;-72
2020/12/20 11:56:25;;;;;;;6.90;2.43;;;10.80;93.30;;;;;;4824621;29;20465;-72
2020/12/20 11:58:52;;;;;;;5.40;1.73;;;10.80;93.20;;;;;;4822627;29;20062;-72
2020/12/20 12:01:27;;;;;;;6.57;2.07;;;10.80;93.30;;;;;;4840713;29;20053;-72
2020/12/20 12:03:54;;;;;;;8.60;2.43;;;10.80;93.30;;;;;;4790476;29;20054;-74
2020/12/20 12:06:20;;;;;;;8.00;2.40;;;10.90;93.10;;;;;;4823681;29;20137;-73
2020/12/20 12:08:47;;;;;;;9.17;2.80;;;10.90;93.20;;;;;;4840904;29;20070;-74
2020/12/20 12:11:20;;;;;;;8.27;4.17;;;10.90;93.10;;;;;;4840663;29;20130;-75
2020/12/20 12:13:48;;;;;;;9.90;3.60;;;10.90;92.80;;;;;;4815902;29;20476;-73
2020/12/20 12:16:17;;;;;;;9.03;3.20;;;10.90;92.90;;;;;;4834657;29;20050;-75
2020/12/20 12:18:44;;;;;;;9.00;3.17;;;11.00;92.90;;;;;;4825507;29;20082;-77
2020/12/20 12:21:18;;;;;;;9.33;2.40;;;11.00;92.70;;;;;;4809898;29;20062;-75
2020/12/20 12:23:47;;;;;;;7.37;3.00;;;11.10;92.80;;;;;;4817731;29;20054;-75
2020/12/20 12:26:30;;;;;;;6.80;2.77;;;11.10;92.80;;;;;;4826142;29;20125;-75
2020/12/20 12:28:57;;;;;;;7.83;2.90;;;11.20;92.70;;;;;;4828422;29;20132;-77
2020/12/20 12:31:23;;;;;;;9.43;4.03;;;11.20;92.70;;;;;;4812691;29;20089;-76
2020/12/20 12:33:50;;;;;;;8.73;3.53;;;11.30;92.50;;;;;;4835482;29;20137;-76
2020/12/20 12:36:16;;;;;;;9.43;3.50;;;11.20;92.30;;;;;;4820151;29;20440;-76
2020/12/20 12:38:42;;;;;;;10.33;3.83;;;11.20;92.20;;;;;;4828620;29;20034;-75
2020/12/20 12:41:09;;;;;;;10.33;4.13;;;11.20;92.10;;;;;;4843533;29;20065;-76
2020/12/20 12:43:35;;;;;;;11.07;3.23;;;11.20;92.20;;;;;;4828222;29;20122;-76
2020/12/20 12:46:02;;;;;;;9.83;3.40;;;11.10;92.20;;;;;;4841683;29;20057;-75
2020/12/20 12:48:29;;;;;;;8.87;3.63;;;11.10;92.10;;;;;;4814693;29;20049;-75
2020/12/20 12:50:55;;;;;;;10.67;3.77;;;11.10;92.10;;;;;;4827901;29;20121;-76
2020/12/20 12:53:25;;;;;;;10.60;3.73;;;11.00;92.10;;;;;;4812696;29;20379;-76
2020/12/20 12:55:51;;;;;;;7.20;3.87;;;11.00;92.10;;;;;;4827695;29;20109;-75
2020/12/20 12:58:18;;;;;;;15.83;5.40;;;11.00;91.90;;;;;;4826674;29;20050;-76
2020/12/20 13:00:46;;;;;;;10.80;4.00;;;11.00;91.80;;;;;;4827577;29;20038;-75
2020/12/20 13:03:13;;;;;;;9.93;2.87;;;11.00;91.70;;;;;;4812921;29;20559;-76
2020/12/20 13:05:40;;;;;;;9.33;3.40;;;11.00;91.90;;;;;;4827690;29;20046;-75
2020/12/20 13:08:06;;;;;;;7.53;2.73;;;11.00;92.00;;;;;;4827816;29;20165;-76
2020/12/20 13:10:33;;;;;;;10.43;3.20;;;11.00;92.00;;;;;;4826628;29;20050;-76
2020/12/20 13:12:59;;;;;;;7.47;2.90;;;11.00;91.80;;;;;;4812337;29;20049;-75
2020/12/20 13:15:25;;;;;;;9.00;2.83;;;11.00;91.90;;;;;;4812780;29;20061;-76